sensor_id;sensor_type;location;lat;lon;timestamp;P1;durP1;ratioP1;P2;durP2;ratioP2
59207;SDS011;44977;53.132;6.408;2023-06-14T00:01:17;7.40;;;2.30;;
59207;SDS011;44977;53.132;6.408;2023-06-14T00:06:20;5.43;;;2.42;;
59207;SDS011;44977;53.132;6.408;2023-06-14T00:11:20;6.63;;;2.33;;
59207;SDS011;44977;53.132;6.408;2023-06-14T00:16:21;6.20;;;2.30;;
59207;SDS011;44977;53.132;6.408;2023-06-14T00:21:22;5.63;;;1.90;;
59207;SDS011;44977;53.132;6.408;2023-06-14T00:26:23;6.65;;;2.17;;
59207;SDS011;44977;53.132;6.408;2023-06-14T00:31:26;6.95;;;2.15;;
59207;SDS011;44977;53.132;6.408;2023-06-14T00:36:27;8.98;;;2.10;;
59207;SDS011;44977;53.132;6.408;2023-06-14T00:41:27;5.03;;;2.13;;
59207;SDS011;44977;53.132;6.408;2023-06-14T00:46:28;6.43;;;1.83;;
59207;SDS011;44977;53.132;6.408;2023-06-14T00:51:29;5.10;;;2.15;;
59207;SDS011;44977;53.132;6.408;2023-06-14T00:56:30;5.47;;;1.83;;
59207;SDS011;44977;53.132;6.408;2023-06-14T01:01:31;4.97;;;1.83;;
59207;SDS011;44977;53.132;6.408;2023-06-14T01:12:16;4.82;;;1.88;;
59207;SDS011;44977;53.132;6.408;2023-06-14T01:17:22;4.75;;;1.80;;
59207;SDS011;44977;53.132;6.408;2023-06-14T01:22:27;4.50;;;2.17;;
59207;SDS011;44977;53.132;6.408;2023-06-14T01:27:27;5.18;;;2.30;;
59207;SDS011;44977;53.132;6.408;2023-06-14T01:32:32;5.68;;;2.13;;
59207;SDS011;44977;53.132;6.408;2023-06-14T01:37:33;5.78;;;2.00;;
59207;SDS011;44977;53.132;6.408;2023-06-14T01:42:35;5.90;;;2.00;;
59207;SDS011;44977;53.132;6.408;2023-06-14T01:47:37;7.80;;;2.00;;
59207;SDS011;44977;53.132;6.408;2023-06-14T01:52:39;4.22;;;1.77;;
59207;SDS011;44977;53.132;6.408;2023-06-14T01:57:40;6.63;;;2.10;;
59207;SDS011;44977;53.132;6.408;2023-06-14T02:02:41;5.10;;;2.15;;
59207;SDS011;44977;53.132;6.408;2023-06-14T02:07:42;3.92;;;1.80;;
59207;SDS011;44977;53.132;6.408;2023-06-14T02:12:43;4.93;;;2.05;;
59207;SDS011;44977;53.132;6.408;2023-06-14T02:17:44;4.85;;;2.10;;
59207;SDS011;44977;53.132;6.408;2023-06-14T02:22:45;5.13;;;2.10;;
59207;SDS011;44977;53.132;6.408;2023-06-14T02:27:45;5.25;;;2.15;;
59207;SDS011;44977;53.132;6.408;2023-06-14T02:32:46;5.47;;;2.00;;
59207;SDS011;44977;53.132;6.408;2023-06-14T02:37:48;6.40;;;2.40;;
59207;SDS011;44977;53.132;6.408;2023-06-14T02:42:49;6.28;;;2.20;;
59207;SDS011;44977;53.132;6.408;2023-06-14T02:47:50;6.97;;;2.17;;
59207;SDS011;44977;53.132;6.408;2023-06-14T02:52:51;5.90;;;2.17;;
59207;SDS011;44977;53.132;6.408;2023-06-14T02:57:52;4.47;;;2.00;;
59207;SDS011;44977;53.132;6.408;2023-06-14T03:02:53;6.28;;;2.47;;
59207;SDS011;44977;53.132;6.408;2023-06-14T03:07:54;5.60;;;2.45;;
59207;SDS011;44977;53.132;6.408;2023-06-14T03:12:55;6.82;;;2.20;;
59207;SDS011;44977;53.132;6.408;2023-06-14T03:17:56;7.85;;;2.95;;
59207;SDS011;44977;53.132;6.408;2023-06-14T03:22:57;6.30;;;2.50;;
59207;SDS011;44977;53.132;6.408;2023-06-14T03:27:58;7.82;;;2.92;;
59207;SDS011;44977;53.132;6.408;2023-06-14T03:32:58;8.35;;;2.88;;
59207;SDS011;44977;53.132;6.408;2023-06-14T03:38:01;7.50;;;2.90;;
59207;SDS011;44977;53.132;6.408;2023-06-14T03:43:03;7.25;;;2.78;;
59207;SDS011;44977;53.132;6.408;2023-06-14T03:48:04;7.05;;;2.42;;
59207;SDS011;44977;53.132;6.408;2023-06-14T03:53:06;5.75;;;2.58;;
59207;SDS011;44977;53.132;6.408;2023-06-14T03:58:07;6.78;;;2.72;;
59207;SDS011;44977;53.132;6.408;2023-06-14T04:03:08;7.00;;;2.75;;
59207;SDS011;44977;53.132;6.408;2023-06-14T04:08:08;6.68;;;2.75;;
59207;SDS011;44977;53.132;6.408;2023-06-14T04:13:10;7.18;;;2.70;;
59207;SDS011;44977;53.132;6.408;2023-06-14T04:18:13;6.50;;;3.00;;
59207;SDS011;44977;53.132;6.408;2023-06-14T04:23:14;6.15;;;3.00;;
59207;SDS011;44977;53.132;6.408;2023-06-14T04:28:17;7.22;;;2.90;;
59207;SDS011;44977;53.132;6.408;2023-06-14T04:33:19;5.72;;;2.88;;
59207;SDS011;44977;53.132;6.408;2023-06-14T04:38:20;6.10;;;3.00;;
59207;SDS011;44977;53.132;6.408;2023-06-14T04:43:24;6.35;;;3.05;;
59207;SDS011;44977;53.132;6.408;2023-06-14T04:48:26;7.70;;;3.28;;
59207;SDS011;44977;53.132;6.408;2023-06-14T04:53:26;7.05;;;3.35;;
59207;SDS011;44977;53.132;6.408;2023-06-14T04:58:29;8.02;;;3.30;;
59207;SDS011;44977;53.132;6.408;2023-06-14T05:03:30;6.90;;;3.33;;
59207;SDS011;44977;53.132;6.408;2023-06-14T05:08:31;8.07;;;3.65;;
59207;SDS011;44977;53.132;6.408;2023-06-14T05:13:32;9.10;;;3.58;;
59207;SDS011;44977;53.132;6.408;2023-06-14T05:18:34;8.15;;;3.15;;
59207;SDS011;44977;53.132;6.408;2023-06-14T05:23:35;7.63;;;3.60;;
59207;SDS011;44977;53.132;6.408;2023-06-14T05:28:36;7.90;;;3.30;;
59207;SDS011;44977;53.132;6.408;2023-06-14T05:33:37;7.65;;;3.40;;
59207;SDS011;44977;53.132;6.408;2023-06-14T05:38:37;8.27;;;3.55;;
59207;SDS011;44977;53.132;6.408;2023-06-14T05:43:38;8.23;;;3.60;;
59207;SDS011;44977;53.132;6.408;2023-06-14T05:48:39;8.57;;;3.60;;
59207;SDS011;44977;53.132;6.408;2023-06-14T05:53:40;7.63;;;3.80;;
59207;SDS011;44977;53.132;6.408;2023-06-14T05:58:41;8.73;;;3.40;;
59207;SDS011;44977;53.132;6.408;2023-06-14T06:03:41;7.45;;;3.25;;
59207;SDS011;44977;53.132;6.408;2023-06-14T06:08:45;7.70;;;3.20;;
59207;SDS011;44977;53.132;6.408;2023-06-14T06:13:46;7.88;;;3.40;;
59207;SDS011;44977;53.132;6.408;2023-06-14T06:18:47;9.00;;;3.28;;
59207;SDS011;44977;53.132;6.408;2023-06-14T06:23:47;6.00;;;3.30;;
59207;SDS011;44977;53.132;6.408;2023-06-14T06:28:48;9.10;;;3.47;;
59207;SDS011;44977;53.132;6.408;2023-06-14T06:33:49;7.57;;;3.47;;
59207;SDS011;44977;53.132;6.408;2023-06-14T06:38:50;5.50;;;2.80;;
59207;SDS011;44977;53.132;6.408;2023-06-14T06:43:51;7.20;;;3.55;;
59207;SDS011;44977;53.132;6.408;2023-06-14T06:48:51;8.02;;;3.35;;
59207;SDS011;44977;53.132;6.408;2023-06-14T06:53:52;6.07;;;2.85;;
59207;SDS011;44977;53.132;6.408;2023-06-14T06:58:54;7.32;;;2.80;;
59207;SDS011;44977;53.132;6.408;2023-06-14T07:03:55;6.40;;;3.15;;
59207;SDS011;44977;53.132;6.408;2023-06-14T07:08:55;7.57;;;3.00;;
59207;SDS011;44977;53.132;6.408;2023-06-14T07:14:01;9.05;;;2.63;;
59207;SDS011;44977;53.132;6.408;2023-06-14T07:19:02;8.38;;;2.90;;
59207;SDS011;44977;53.132;6.408;2023-06-14T07:24:05;6.18;;;2.65;;
59207;SDS011;44977;53.132;6.408;2023-06-14T07:29:06;5.80;;;2.47;;
59207;SDS011;44977;53.132;6.408;2023-06-14T07:34:07;8.25;;;2.80;;
59207;SDS011;44977;53.132;6.408;2023-06-14T07:39:08;5.25;;;2.75;;
59207;SDS011;44977;53.132;6.408;2023-06-14T07:44:10;6.25;;;2.50;;
59207;SDS011;44977;53.132;6.408;2023-06-14T07:49:10;6.03;;;2.42;;
59207;SDS011;44977;53.132;6.408;2023-06-14T07:54:11;8.65;;;3.08;;
59207;SDS011;44977;53.132;6.408;2023-06-14T07:59:12;9.43;;;2.78;;
59207;SDS011;44977;53.132;6.408;2023-06-14T08:04:13;7.22;;;2.95;;
59207;SDS011;44977;53.132;6.408;2023-06-14T08:09:14;9.52;;;3.28;;
59207;SDS011;44977;53.132;6.408;2023-06-14T08:14:15;6.53;;;2.90;;
59207;SDS011;44977;53.132;6.408;2023-06-14T08:19:16;6.07;;;2.60;;
59207;SDS011;44977;53.132;6.408;2023-06-14T08:24:16;7.25;;;2.67;;
59207;SDS011;44977;53.132;6.408;2023-06-14T08:29:19;7.32;;;2.55;;
59207;SDS011;44977;53.132;6.408;2023-06-14T08:34:19;5.63;;;2.45;;
59207;SDS011;44977;53.132;6.408;2023-06-14T08:39:20;6.35;;;2.65;;
59207;SDS011;44977;53.132;6.408;2023-06-14T08:44:22;8.20;;;2.85;;
59207;SDS011;44977;53.132;6.408;2023-06-14T08:49:23;9.07;;;2.60;;
59207;SDS011;44977;53.132;6.408;2023-06-14T08:54:25;6.25;;;2.70;;
59207;SDS011;44977;53.132;6.408;2023-06-14T08:59:30;7.00;;;2.75;;
59207;SDS011;44977;53.132;6.408;2023-06-14T09:04:34;6.53;;;2.40;;
59207;SDS011;44977;53.132;6.408;2023-06-14T09:09:38;5.78;;;2.30;;
59207;SDS011;44977;53.132;6.408;2023-06-14T09:14:42;6.40;;;2.40;;
59207;SDS011;44977;53.132;6.408;2023-06-14T09:19:42;7.40;;;2.60;;
59207;SDS011;44977;53.132;6.408;2023-06-14T09:24:45;6.53;;;2.42;;
59207;SDS011;44977;53.132;6.408;2023-06-14T09:29:45;6.40;;;2.30;;
59207;SDS011;44977;53.132;6.408;2023-06-14T09:34:46;6.32;;;2.45;;
59207;SDS011;44977;53.132;6.408;2023-06-14T09:39:50;5.50;;;2.42;;
59207;SDS011;44977;53.132;6.408;2023-06-14T09:44:52;6.90;;;2.28;;
59207;SDS011;44977;53.132;6.408;2023-06-14T09:49:54;7.38;;;2.55;;
59207;SDS011;44977;53.132;6.408;2023-06-14T09:54:55;4.63;;;2.20;;
59207;SDS011;44977;53.132;6.408;2023-06-14T09:59:58;6.65;;;2.47;;
59207;SDS011;44977;53.132;6.408;2023-06-14T10:05:07;5.57;;;2.53;;
59207;SDS011;44977;53.132;6.408;2023-06-14T10:10:11;6.50;;;2.20;;
59207;SDS011;44977;53.132;6.408;2023-06-14T10:15:15;7.53;;;2.47;;
59207;SDS011;44977;53.132;6.408;2023-06-14T10:20:42;4.75;;;2.30;;
59207;SDS011;44977;53.132;6.408;2023-06-14T10:25:50;4.18;;;2.10;;
59207;SDS011;44977;53.132;6.408;2023-06-14T10:31:09;4.88;;;2.38;;
59207;SDS011;44977;53.132;6.408;2023-06-14T10:41:22;7.28;;;2.53;;
59207;SDS011;44977;53.132;6.408;2023-06-14T10:46:24;5.00;;;2.35;;
59207;SDS011;44977;53.132;6.408;2023-06-14T10:51:29;4.87;;;2.30;;
59207;SDS011;44977;53.132;6.408;2023-06-14T10:56:52;9.15;;;2.60;;
59207;SDS011;44977;53.132;6.408;2023-06-14T11:01:57;6.22;;;2.10;;
59207;SDS011;44977;53.132;6.408;2023-06-14T11:07:19;5.95;;;2.10;;
59207;SDS011;44977;53.132;6.408;2023-06-14T11:12:47;4.72;;;2.30;;
59207;SDS011;44977;53.132;6.408;2023-06-14T11:17:52;5.75;;;2.15;;
59207;SDS011;44977;53.132;6.408;2023-06-14T11:22:56;4.13;;;2.00;;
59207;SDS011;44977;53.132;6.408;2023-06-14T11:27:57;5.82;;;2.22;;
59207;SDS011;44977;53.132;6.408;2023-06-14T11:32:59;4.82;;;2.30;;
59207;SDS011;44977;53.132;6.408;2023-06-14T11:38:01;4.75;;;2.20;;
59207;SDS011;44977;53.132;6.408;2023-06-14T11:43:02;6.70;;;2.00;;
59207;SDS011;44977;53.132;6.408;2023-06-14T11:48:03;7.78;;;2.13;;
59207;SDS011;44977;53.132;6.408;2023-06-14T11:53:03;7.70;;;1.75;;
59207;SDS011;44977;53.132;6.408;2023-06-14T11:58:07;5.68;;;1.95;;
59207;SDS011;44977;53.132;6.408;2023-06-14T12:03:08;4.10;;;1.35;;
59207;SDS011;44977;53.132;6.408;2023-06-14T12:08:09;5.72;;;1.80;;
59207;SDS011;44977;53.132;6.408;2023-06-14T12:13:16;5.07;;;1.58;;
59207;SDS011;44977;53.132;6.408;2023-06-14T12:18:18;6.78;;;1.80;;
59207;SDS011;44977;53.132;6.408;2023-06-14T12:23:19;4.00;;;1.70;;
59207;SDS011;44977;53.132;6.408;2023-06-14T12:28:19;4.18;;;1.65;;
59207;SDS011;44977;53.132;6.408;2023-06-14T12:33:20;4.85;;;1.70;;
59207;SDS011;44977;53.132;6.408;2023-06-14T12:38:21;4.30;;;1.60;;
59207;SDS011;44977;53.132;6.408;2023-06-14T12:43:21;6.45;;;2.10;;
59207;SDS011;44977;53.132;6.408;2023-06-14T12:48:22;4.55;;;1.80;;
59207;SDS011;44977;53.132;6.408;2023-06-14T12:53:23;3.92;;;1.70;;
59207;SDS011;44977;53.132;6.408;2023-06-14T12:58:24;4.25;;;1.50;;
59207;SDS011;44977;53.132;6.408;2023-06-14T13:03:24;8.15;;;1.90;;
59207;SDS011;44977;53.132;6.408;2023-06-14T13:08:25;4.10;;;1.73;;
59207;SDS011;44977;53.132;6.408;2023-06-14T13:13:26;5.28;;;1.80;;
59207;SDS011;44977;53.132;6.408;2023-06-14T13:18:27;5.20;;;1.75;;
59207;SDS011;44977;53.132;6.408;2023-06-14T13:23:27;6.80;;;2.15;;
59207;SDS011;44977;53.132;6.408;2023-06-14T13:28:28;5.70;;;2.10;;
59207;SDS011;44977;53.132;6.408;2023-06-14T13:33:29;6.45;;;2.00;;
59207;SDS011;44977;53.132;6.408;2023-06-14T13:38:31;5.78;;;1.90;;
59207;SDS011;44977;53.132;6.408;2023-06-14T13:43:31;5.93;;;1.83;;
59207;SDS011;44977;53.132;6.408;2023-06-14T13:48:32;3.15;;;1.77;;
59207;SDS011;44977;53.132;6.408;2023-06-14T13:53:33;4.35;;;1.73;;
59207;SDS011;44977;53.132;6.408;2023-06-14T13:58:33;5.55;;;2.10;;
59207;SDS011;44977;53.132;6.408;2023-06-14T14:03:34;5.35;;;1.92;;
59207;SDS011;44977;53.132;6.408;2023-06-14T14:08:36;4.35;;;2.15;;
59207;SDS011;44977;53.132;6.408;2023-06-14T14:13:37;7.60;;;2.25;;
59207;SDS011;44977;53.132;6.408;2023-06-14T14:18:38;5.03;;;1.85;;
59207;SDS011;44977;53.132;6.408;2023-06-14T14:23:39;4.97;;;1.90;;
59207;SDS011;44977;53.132;6.408;2023-06-14T14:28:39;5.25;;;2.00;;
59207;SDS011;44977;53.132;6.408;2023-06-14T14:33:40;4.35;;;2.15;;
59207;SDS011;44977;53.132;6.408;2023-06-14T14:38:41;4.28;;;1.88;;
59207;SDS011;44977;53.132;6.408;2023-06-14T14:43:42;4.95;;;2.10;;
59207;SDS011;44977;53.132;6.408;2023-06-14T14:48:43;5.82;;;1.98;;
59207;SDS011;44977;53.132;6.408;2023-06-14T14:53:43;5.82;;;2.10;;
59207;SDS011;44977;53.132;6.408;2023-06-14T14:58:44;5.18;;;2.28;;
59207;SDS011;44977;53.132;6.408;2023-06-14T15:03:45;6.15;;;2.22;;
59207;SDS011;44977;53.132;6.408;2023-06-14T15:08:46;5.05;;;2.35;;
59207;SDS011;44977;53.132;6.408;2023-06-14T15:13:47;5.20;;;2.08;;
59207;SDS011;44977;53.132;6.408;2023-06-14T15:18:47;5.93;;;2.20;;
59207;SDS011;44977;53.132;6.408;2023-06-14T15:23:48;4.45;;;2.10;;
59207;SDS011;44977;53.132;6.408;2023-06-14T15:28:50;7.25;;;2.65;;
59207;SDS011;44977;53.132;6.408;2023-06-14T15:33:51;5.30;;;2.20;;
59207;SDS011;44977;53.132;6.408;2023-06-14T15:38:52;5.32;;;2.30;;
59207;SDS011;44977;53.132;6.408;2023-06-14T15:43:52;5.45;;;2.25;;
59207;SDS011;44977;53.132;6.408;2023-06-14T15:48:53;3.97;;;2.10;;
59207;SDS011;44977;53.132;6.408;2023-06-14T15:53:54;7.05;;;2.30;;
59207;SDS011;44977;53.132;6.408;2023-06-14T15:58:55;4.70;;;2.33;;
59207;SDS011;44977;53.132;6.408;2023-06-14T16:03:56;4.80;;;2.17;;
59207;SDS011;44977;53.132;6.408;2023-06-14T16:08:57;5.28;;;2.33;;
59207;SDS011;44977;53.132;6.408;2023-06-14T16:13:58;7.88;;;3.65;;
59207;SDS011;44977;53.132;6.408;2023-06-14T16:18:58;6.15;;;2.80;;
59207;SDS011;44977;53.132;6.408;2023-06-14T16:23:59;6.43;;;2.63;;
59207;SDS011;44977;53.132;6.408;2023-06-14T16:29:00;6.93;;;2.78;;
59207;SDS011;44977;53.132;6.408;2023-06-14T16:34:01;5.60;;;3.17;;
59207;SDS011;44977;53.132;6.408;2023-06-14T16:39:02;6.07;;;2.90;;
59207;SDS011;44977;53.132;6.408;2023-06-14T16:44:03;4.75;;;2.28;;
59207;SDS011;44977;53.132;6.408;2023-06-14T16:49:05;14.65;;;4.47;;
59207;SDS011;44977;53.132;6.408;2023-06-14T16:54:06;7.95;;;3.15;;
59207;SDS011;44977;53.132;6.408;2023-06-14T16:59:06;11.98;;;3.58;;
59207;SDS011;44977;53.132;6.408;2023-06-14T17:04:07;8.70;;;3.40;;
59207;SDS011;44977;53.132;6.408;2023-06-14T17:09:08;8.38;;;3.17;;
59207;SDS011;44977;53.132;6.408;2023-06-14T17:14:09;9.68;;;3.40;;
59207;SDS011;44977;53.132;6.408;2023-06-14T17:19:12;9.23;;;3.28;;
59207;SDS011;44977;53.132;6.408;2023-06-14T17:24:13;9.32;;;3.17;;
59207;SDS011;44977;53.132;6.408;2023-06-14T17:29:14;6.78;;;2.70;;
59207;SDS011;44977;53.132;6.408;2023-06-14T17:34:15;8.23;;;3.22;;
59207;SDS011;44977;53.132;6.408;2023-06-14T17:39:16;8.65;;;2.83;;
59207;SDS011;44977;53.132;6.408;2023-06-14T17:44:18;10.80;;;3.17;;
59207;SDS011;44977;53.132;6.408;2023-06-14T17:49:18;7.72;;;2.90;;
59207;SDS011;44977;53.132;6.408;2023-06-14T17:54:23;8.77;;;3.25;;
59207;SDS011;44977;53.132;6.408;2023-06-14T17:59:24;7.45;;;2.95;;
59207;SDS011;44977;53.132;6.408;2023-06-14T18:04:25;8.00;;;3.22;;
59207;SDS011;44977;53.132;6.408;2023-06-14T18:09:27;8.15;;;2.80;;
59207;SDS011;44977;53.132;6.408;2023-06-14T18:14:28;8.48;;;2.95;;
59207;SDS011;44977;53.132;6.408;2023-06-14T18:19:31;6.47;;;3.05;;
59207;SDS011;44977;53.132;6.408;2023-06-14T18:24:31;7.30;;;2.88;;
59207;SDS011;44977;53.132;6.408;2023-06-14T18:29:32;6.35;;;2.72;;
59207;SDS011;44977;53.132;6.408;2023-06-14T18:34:35;7.53;;;2.90;;
59207;SDS011;44977;53.132;6.408;2023-06-14T18:39:36;7.60;;;3.10;;
59207;SDS011;44977;53.132;6.408;2023-06-14T18:44:37;6.07;;;2.97;;
59207;SDS011;44977;53.132;6.408;2023-06-14T18:49:38;7.93;;;2.83;;
59207;SDS011;44977;53.132;6.408;2023-06-14T18:54:39;7.95;;;3.20;;
59207;SDS011;44977;53.132;6.408;2023-06-14T18:59:40;6.65;;;2.75;;
59207;SDS011;44977;53.132;6.408;2023-06-14T19:04:41;8.57;;;3.13;;
59207;SDS011;44977;53.132;6.408;2023-06-14T19:09:41;7.32;;;3.40;;
59207;SDS011;44977;53.132;6.408;2023-06-14T19:14:42;8.55;;;3.45;;
59207;SDS011;44977;53.132;6.408;2023-06-14T19:19:43;6.35;;;2.75;;
59207;SDS011;44977;53.132;6.408;2023-06-14T19:24:45;7.13;;;3.30;;
59207;SDS011;44977;53.132;6.408;2023-06-14T19:29:45;8.13;;;2.92;;
59207;SDS011;44977;53.132;6.408;2023-06-14T19:34:46;7.78;;;2.88;;
59207;SDS011;44977;53.132;6.408;2023-06-14T19:39:47;6.47;;;2.50;;
59207;SDS011;44977;53.132;6.408;2023-06-14T19:44:49;8.35;;;2.90;;
59207;SDS011;44977;53.132;6.408;2023-06-14T19:49:49;7.80;;;3.38;;
59207;SDS011;44977;53.132;6.408;2023-06-14T19:54:50;6.63;;;2.63;;
59207;SDS011;44977;53.132;6.408;2023-06-14T19:59:51;8.07;;;3.05;;
59207;SDS011;44977;53.132;6.408;2023-06-14T20:04:52;8.82;;;2.95;;
59207;SDS011;44977;53.132;6.408;2023-06-14T20:09:54;6.93;;;2.80;;
59207;SDS011;44977;53.132;6.408;2023-06-14T20:14:55;8.02;;;2.97;;
59207;SDS011;44977;53.132;6.408;2023-06-14T20:19:56;8.43;;;3.05;;
59207;SDS011;44977;53.132;6.408;2023-06-14T20:24:56;7.35;;;2.70;;
59207;SDS011;44977;53.132;6.408;2023-06-14T20:29:57;8.38;;;2.90;;
59207;SDS011;44977;53.132;6.408;2023-06-14T20:34:58;7.68;;;2.78;;
59207;SDS011;44977;53.132;6.408;2023-06-14T20:39:59;7.20;;;3.05;;
59207;SDS011;44977;53.132;6.408;2023-06-14T20:50:06;6.22;;;3.28;;
59207;SDS011;44977;53.132;6.408;2023-06-14T20:55:11;6.50;;;2.72;;
59207;SDS011;44977;53.132;6.408;2023-06-14T21:00:12;7.57;;;2.97;;
59207;SDS011;44977;53.132;6.408;2023-06-14T21:05:16;6.95;;;2.97;;
59207;SDS011;44977;53.132;6.408;2023-06-14T21:10:17;6.57;;;2.70;;
59207;SDS011;44977;53.132;6.408;2023-06-14T21:15:18;7.20;;;2.72;;
59207;SDS011;44977;53.132;6.408;2023-06-14T21:20:18;6.28;;;2.75;;
59207;SDS011;44977;53.132;6.408;2023-06-14T21:25:19;8.10;;;2.70;;
59207;SDS011;44977;53.132;6.408;2023-06-14T21:30:30;8.20;;;2.80;;
59207;SDS011;44977;53.132;6.408;2023-06-14T21:35:35;6.82;;;2.83;;
59207;SDS011;44977;53.132;6.408;2023-06-14T21:40:35;6.45;;;2.50;;
59207;SDS011;44977;53.132;6.408;2023-06-14T21:45:36;8.80;;;2.72;;
59207;SDS011;44977;53.132;6.408;2023-06-14T21:50:37;8.50;;;2.42;;
59207;SDS011;44977;53.132;6.408;2023-06-14T21:55:39;6.00;;;2.65;;
59207;SDS011;44977;53.132;6.408;2023-06-14T22:00:40;5.68;;;2.30;;
59207;SDS011;44977;53.132;6.408;2023-06-14T22:05:41;6.25;;;2.60;;
59207;SDS011;44977;53.132;6.408;2023-06-14T22:10:42;7.28;;;2.72;;
59207;SDS011;44977;53.132;6.408;2023-06-14T22:15:43;8.07;;;2.78;;
59207;SDS011;44977;53.132;6.408;2023-06-14T22:20:46;5.50;;;2.38;;
59207;SDS011;44977;53.132;6.408;2023-06-14T22:25:47;5.75;;;2.53;;
59207;SDS011;44977;53.132;6.408;2023-06-14T22:30:48;7.20;;;2.50;;
59207;SDS011;44977;53.132;6.408;2023-06-14T22:35:48;8.07;;;2.53;;
59207;SDS011;44977;53.132;6.408;2023-06-14T22:40:49;6.63;;;2.72;;
59207;SDS011;44977;53.132;6.408;2023-06-14T22:45:50;5.40;;;2.50;;
59207;SDS011;44977;53.132;6.408;2023-06-14T22:50:51;7.93;;;2.50;;
59207;SDS011;44977;53.132;6.408;2023-06-14T22:55:52;6.28;;;2.47;;
59207;SDS011;44977;53.132;6.408;2023-06-14T23:00:52;7.63;;;2.70;;
59207;SDS011;44977;53.132;6.408;2023-06-14T23:05:53;9.07;;;2.70;;
59207;SDS011;44977;53.132;6.408;2023-06-14T23:10:56;8.07;;;2.70;;
59207;SDS011;44977;53.132;6.408;2023-06-14T23:15:57;6.28;;;2.65;;
59207;SDS011;44977;53.132;6.408;2023-06-14T23:20:58;8.13;;;2.90;;
59207;SDS011;44977;53.132;6.408;2023-06-14T23:25:58;7.38;;;2.63;;
59207;SDS011;44977;53.132;6.408;2023-06-14T23:31:00;6.13;;;2.50;;
59207;SDS011;44977;53.132;6.408;2023-06-14T23:36:02;5.45;;;2.50;;
59207;SDS011;44977;53.132;6.408;2023-06-14T23:41:04;6.40;;;2.83;;
59207;SDS011;44977;53.132;6.408;2023-06-14T23:46:05;7.65;;;3.20;;
59207;SDS011;44977;53.132;6.408;2023-06-14T23:51:06;8.05;;;3.00;;
59207;SDS011;44977;53.132;6.408;2023-06-14T23:56:06;7.60;;;2.70;;
